createdAt,value
2022-12-20T00:03:09.024Z,13.23
2022-12-20T00:06:31.345Z,9.13
2022-12-20T00:09:53.189Z,10.23
2022-12-20T00:13:17.618Z,11.47
2022-12-20T00:16:39.484Z,9.50
2022-12-20T00:20:02.385Z,9.83
2022-12-20T00:23:24.271Z,10.37
2022-12-20T00:26:46.192Z,9.60
2022-12-20T00:30:09.028Z,11.37
2022-12-20T00:33:39.592Z,11.03
2022-12-20T00:37:04.889Z,10.63
2022-12-20T00:40:26.806Z,10.57
2022-12-20T00:43:49.249Z,15.67
2022-12-20T00:47:11.195Z,11.40
2022-12-20T00:50:33.175Z,10.83
2022-12-20T00:53:55.986Z,12.53
2022-12-20T00:57:17.857Z,11.87
2022-12-20T01:00:40.523Z,9.17
2022-12-20T01:04:06.172Z,12.30
2022-12-20T01:07:31.355Z,17.90
2022-12-20T01:11:14.171Z,10.70
2022-12-20T01:14:36.349Z,9.77
2022-12-20T01:17:59.233Z,10.93
2022-12-20T01:21:23.271Z,9.27
2022-12-20T01:24:45.178Z,9.50
2022-12-20T01:28:07.084Z,8.53
2022-12-20T01:31:30.635Z,9.80
2022-12-20T01:34:54.476Z,10.70
2022-12-20T01:38:16.309Z,8.47
2022-12-20T01:41:38.654Z,8.20
2022-12-20T01:45:02.011Z,10.00
2022-12-20T01:48:26.401Z,10.43
2022-12-20T01:51:57.968Z,14.60
2022-12-20T01:55:28.315Z,10.70
2022-12-20T01:58:55.415Z,10.03
2022-12-20T02:02:18.260Z,11.40
2022-12-20T02:05:47.744Z,10.30
2022-12-20T02:09:10.390Z,9.77
2022-12-20T02:12:44.531Z,13.30
2022-12-20T02:16:06.690Z,9.67
2022-12-20T02:19:57.577Z,9.27
2022-12-20T02:23:42.897Z,12.33
2022-12-20T02:27:25.626Z,15.23
2022-12-20T02:30:55.023Z,8.80
2022-12-20T02:34:24.981Z,10.70
2022-12-20T02:37:54.041Z,10.07
2022-12-20T02:41:42.222Z,9.80
2022-12-20T02:45:15.620Z,9.43
2022-12-20T02:48:39.861Z,11.60
2022-12-20T02:52:04.700Z,8.37
2022-12-20T02:55:39.649Z,16.60
2022-12-20T02:59:16.932Z,10.07
2022-12-20T03:03:01.969Z,12.63
2022-12-20T03:06:24.547Z,11.50
2022-12-20T03:09:46.782Z,10.83
2022-12-20T03:13:11.633Z,12.10
2022-12-20T03:16:41.298Z,12.57
2022-12-20T03:20:06.196Z,11.43
2022-12-20T03:23:28.061Z,9.37
2022-12-20T03:26:51.506Z,13.97
2022-12-20T03:30:16.004Z,8.37
2022-12-20T03:33:38.098Z,12.10
2022-12-20T03:37:02.375Z,6.93
2022-12-20T03:40:24.518Z,11.73
2022-12-20T03:43:46.644Z,8.73
2022-12-20T03:47:08.771Z,9.80
2022-12-20T03:50:32.144Z,9.83
2022-12-20T03:53:56.008Z,9.70
2022-12-20T03:57:24.637Z,9.73
2022-12-20T04:00:47.933Z,7.10
2022-12-20T04:04:29.712Z,10.43
2022-12-20T04:07:51.531Z,10.43
2022-12-20T04:11:17.978Z,11.37
2022-12-20T04:14:46.510Z,10.50
2022-12-20T04:18:09.045Z,11.80
2022-12-20T04:21:35.053Z,9.90
2022-12-20T04:24:58.597Z,10.00
2022-12-20T04:28:25.036Z,9.00
2022-12-20T04:31:49.213Z,11.50
2022-12-20T04:35:11.526Z,9.57
2022-12-20T04:38:36.695Z,8.63
2022-12-20T04:41:59.371Z,9.53
2022-12-20T04:45:21.270Z,10.57
2022-12-20T04:49:00.539Z,17.00
2022-12-20T04:52:48.028Z,8.40
2022-12-20T04:56:10.680Z,15.27
2022-12-20T04:59:33.212Z,7.63
2022-12-20T05:02:58.748Z,7.73
2022-12-20T05:06:23.740Z,8.27
2022-12-20T05:09:48.277Z,6.03
2022-12-20T05:13:10.902Z,10.43
2022-12-20T05:16:38.514Z,9.33
2022-12-20T05:20:01.930Z,10.07
2022-12-20T05:24:04.869Z,9.03
2022-12-20T05:27:32.678Z,10.27
2022-12-20T05:30:54.725Z,12.10
2022-12-20T05:34:18.127Z,10.83
2022-12-20T05:37:45.423Z,7.33
2022-12-20T05:41:13.582Z,6.93
2022-12-20T05:44:37.327Z,6.93
2022-12-20T05:48:00.281Z,9.67
2022-12-20T05:51:22.398Z,7.63
2022-12-20T05:54:50.244Z,5.90
2022-12-20T05:58:13.669Z,6.87
2022-12-20T06:01:46.239Z,5.33
2022-12-20T06:05:09.048Z,4.37
2022-12-20T06:08:31.733Z,6.07
2022-12-20T06:11:55.924Z,5.07
2022-12-20T06:15:17.886Z,8.90
2022-12-20T06:18:39.981Z,5.30
2022-12-20T06:22:02.022Z,7.07
2022-12-20T06:25:39.609Z,6.53
2022-12-20T06:29:09.007Z,6.37
2022-12-20T06:32:36.336Z,5.53
2022-12-20T06:35:59.330Z,8.53
2022-12-20T06:39:21.679Z,7.30
2022-12-20T06:42:51.734Z,5.47
2022-12-20T06:46:17.346Z,9.17
2022-12-20T06:49:40.366Z,8.57
2022-12-20T06:53:09.945Z,4.93
2022-12-20T06:56:36.180Z,9.57
2022-12-20T07:00:08.344Z,5.43
2022-12-20T07:03:31.764Z,8.40
2022-12-20T07:06:54.104Z,7.83
2022-12-20T07:10:16.398Z,5.90
2022-12-20T07:13:38.375Z,10.20
2022-12-20T07:17:00.279Z,7.77
2022-12-20T07:20:22.175Z,7.47
2022-12-20T07:23:44.094Z,13.17
2022-12-20T07:27:05.907Z,8.33
2022-12-20T07:30:27.818Z,5.20
2022-12-20T07:33:49.820Z,8.37
2022-12-20T07:37:12.942Z,5.90
2022-12-20T07:40:34.777Z,8.60
2022-12-20T07:43:58.875Z,5.00
2022-12-20T07:47:21.010Z,8.83
2022-12-20T07:50:43.881Z,14.17
2022-12-20T07:54:18.865Z,6.33
2022-12-20T07:57:53.019Z,12.47
2022-12-20T08:01:16.200Z,8.03
2022-12-20T08:04:39.315Z,8.27
2022-12-20T08:08:03.694Z,5.73
2022-12-20T08:11:28.896Z,5.13
2022-12-20T08:14:55.933Z,6.37
2022-12-20T08:18:27.846Z,8.70
2022-12-20T08:21:49.727Z,6.67
2022-12-20T08:25:12.893Z,5.57
2022-12-20T08:28:34.938Z,6.47
2022-12-20T08:31:56.966Z,6.80
2022-12-20T08:35:18.797Z,5.23
2022-12-20T08:38:41.364Z,7.20
2022-12-20T08:42:05.696Z,7.27
2022-12-20T08:45:27.649Z,4.50
2022-12-20T08:48:49.564Z,5.53
2022-12-20T08:52:11.398Z,10.27
2022-12-20T08:55:33.210Z,6.70
2022-12-20T08:58:55.005Z,6.70
2022-12-20T09:02:17.039Z,8.93
2022-12-20T09:05:48.977Z,6.63
2022-12-20T09:09:10.970Z,5.80
2022-12-20T09:12:37.281Z,8.67
2022-12-20T09:16:04.580Z,7.67
2022-12-20T09:19:26.722Z,5.70
2022-12-20T09:22:50.629Z,14.63
2022-12-20T09:26:18.859Z,10.67
2022-12-20T09:29:40.729Z,6.97
2022-12-20T09:33:09.699Z,12.07
2022-12-20T09:36:32.361Z,8.73
2022-12-20T09:39:54.201Z,7.10
2022-12-20T09:43:18.529Z,10.33
2022-12-20T09:46:41.578Z,5.23
2022-12-20T09:50:07.491Z,6.23
2022-12-20T09:53:57.996Z,7.20
2022-12-20T09:57:46.244Z,7.87
2022-12-20T10:01:25.385Z,8.00
2022-12-20T10:04:48.726Z,8.27
2022-12-20T10:08:31.518Z,9.20
2022-12-20T10:12:21.710Z,10.17
2022-12-20T10:16:13.756Z,5.47
2022-12-20T10:20:09.131Z,7.47
2022-12-20T10:24:10.233Z,5.60
2022-12-20T10:27:37.804Z,5.50
2022-12-20T10:31:18.379Z,7.37
2022-12-20T10:35:01.220Z,6.30
2022-12-20T10:38:24.000Z,9.47
2022-12-20T10:41:49.085Z,6.72
2022-12-20T10:45:36.411Z,7.32
2022-12-20T10:49:18.353Z,4.57
2022-12-20T10:52:40.367Z,6.03
2022-12-20T10:56:22.925Z,5.38
2022-12-20T11:00:01.585Z,8.00
2022-12-20T11:03:30.920Z,6.88
2022-12-20T11:06:56.680Z,5.75
2022-12-20T11:10:23.859Z,4.55
2022-12-20T11:13:47.511Z,10.38
2022-12-20T11:17:33.770Z,9.98
2022-12-20T11:21:27.679Z,10.10
2022-12-20T11:25:34.040Z,6.75
2022-12-20T11:28:58.555Z,8.80
2022-12-20T11:32:48.929Z,7.28
2022-12-20T11:36:50.453Z,6.18
2022-12-20T11:40:28.148Z,7.15
2022-12-20T11:48:19.116Z,8.13
2022-12-20T11:51:48.248Z,8.55
2022-12-20T11:55:27.803Z,8.57
2022-12-20T11:59:37.550Z,5.15
2022-12-20T12:03:25.561Z,13.27
2022-12-20T12:06:56.992Z,11.75
2022-12-20T12:10:33.993Z,10.57
2022-12-20T12:13:59.106Z,7.85
2022-12-20T12:18:00.781Z,5.97
2022-12-20T12:21:38.863Z,5.25
2022-12-20T12:25:14.701Z,7.00
2022-12-20T12:28:40.744Z,9.82
2022-12-20T12:32:20.025Z,6.00
2022-12-20T12:36:50.635Z,7.47
2022-12-20T12:40:52.575Z,8.40
2022-12-20T12:44:57.743Z,6.88
2022-12-20T12:48:49.796Z,12.45
2022-12-20T12:52:42.501Z,5.22
2022-12-20T12:56:43.899Z,7.07
2022-12-20T13:00:54.900Z,5.40
2022-12-20T13:04:19.873Z,5.53
2022-12-20T13:07:46.008Z,6.55
2022-12-20T13:11:52.329Z,6.53
2022-12-20T13:15:23.423Z,13.13
2022-12-20T13:19:17.586Z,6.03
2022-12-20T13:23:01.953Z,9.30
2022-12-20T13:27:00.763Z,5.68
2022-12-20T13:30:47.382Z,5.70
2022-12-20T13:35:20.998Z,8.07
2022-12-20T13:38:49.164Z,5.45
2022-12-20T13:42:43.704Z,6.65
2022-12-20T13:51:20.624Z,11.55
2022-12-20T13:55:03.613Z,6.88
2022-12-20T13:59:00.244Z,9.32
2022-12-20T14:02:43.194Z,6.72
2022-12-20T14:06:11.452Z,6.80
2022-12-20T14:09:41.672Z,6.95
2022-12-20T14:13:25.885Z,6.95
2022-12-20T14:16:50.825Z,6.22
2022-12-20T14:20:13.652Z,9.27
2022-12-20T14:23:44.010Z,6.13
2022-12-20T14:27:06.288Z,4.05
2022-12-20T14:30:41.214Z,11.80
2022-12-20T14:34:05.766Z,8.02
2022-12-20T14:37:39.028Z,4.68
2022-12-20T14:41:31.679Z,5.63
2022-12-20T14:45:25.588Z,7.13
2022-12-20T14:49:30.509Z,5.38
2022-12-20T14:52:52.695Z,5.18
2022-12-20T14:56:23.777Z,10.63
2022-12-20T15:00:18.351Z,6.38
2022-12-20T15:03:53.421Z,6.50
2022-12-20T15:07:32.080Z,7.72
2022-12-20T15:11:09.413Z,5.40
2022-12-20T15:14:39.242Z,4.95
2022-12-20T15:18:01.327Z,8.43
2022-12-20T15:21:35.404Z,7.63
2022-12-20T15:25:00.428Z,5.88
2022-12-20T15:28:25.183Z,5.78
2022-12-20T15:31:48.665Z,8.90
2022-12-20T15:35:14.849Z,8.30
2022-12-20T15:42:24.904Z,9.35
2022-12-20T15:45:54.413Z,9.52
2022-12-20T15:49:21.119Z,11.32
2022-12-20T15:52:44.258Z,13.75
2022-12-20T15:56:19.353Z,11.23
2022-12-20T16:00:01.273Z,18.63
2022-12-20T16:03:35.451Z,20.70
2022-12-20T16:06:57.459Z,13.70
2022-12-20T16:10:28.959Z,15.90
2022-12-20T16:13:51.873Z,9.25
2022-12-20T16:17:15.866Z,15.77
2022-12-20T16:20:38.523Z,11.77
2022-12-20T16:24:00.548Z,12.13
2022-12-20T16:27:22.631Z,10.88
2022-12-20T16:30:50.910Z,12.32
2022-12-20T16:34:17.389Z,12.98
2022-12-20T16:37:39.402Z,13.32
2022-12-20T16:41:13.671Z,10.52
2022-12-20T16:44:36.607Z,10.70
2022-12-20T16:47:59.143Z,14.25
2022-12-20T16:51:37.934Z,11.20
2022-12-20T16:54:59.831Z,10.48
2022-12-20T16:58:38.630Z,11.73
2022-12-20T17:02:29.426Z,13.55
2022-12-20T17:05:51.445Z,12.02
2022-12-20T17:12:54.189Z,13.40
2022-12-20T17:16:16.976Z,12.70
2022-12-20T17:19:39.549Z,11.73
2022-12-20T17:23:01.367Z,14.07
2022-12-20T17:26:30.713Z,12.20
2022-12-20T17:29:52.682Z,8.52
2022-12-20T17:33:16.308Z,10.82
2022-12-20T17:36:44.995Z,9.52
2022-12-20T17:40:08.872Z,8.02
2022-12-20T17:43:30.729Z,13.88
2022-12-20T17:46:55.729Z,9.90
2022-12-20T17:50:19.469Z,9.20
2022-12-20T17:53:41.427Z,10.50
2022-12-20T17:57:04.479Z,17.52
2022-12-20T18:00:38.806Z,14.70
2022-12-20T18:04:13.717Z,11.82
2022-12-20T18:07:42.947Z,9.98
2022-12-20T18:11:07.677Z,10.43
2022-12-20T18:14:31.574Z,16.13
2022-12-20T18:17:54.384Z,14.45
2022-12-20T18:21:18.771Z,17.50
2022-12-20T18:24:40.700Z,14.13
2022-12-20T18:28:02.803Z,14.65
2022-12-20T18:31:28.629Z,17.42
2022-12-20T18:34:50.625Z,18.42
2022-12-20T18:38:16.328Z,13.70
2022-12-20T18:41:38.584Z,16.45
2022-12-20T18:45:00.455Z,13.75
2022-12-20T18:48:24.865Z,16.58
2022-12-20T18:51:48.793Z,25.85
2022-12-20T18:55:11.685Z,14.80
2022-12-20T18:58:36.351Z,17.77
2022-12-20T19:02:02.747Z,18.67
2022-12-20T19:05:28.528Z,18.02
2022-12-20T19:08:52.455Z,10.95
2022-12-20T19:12:22.363Z,14.80
2022-12-20T19:15:49.790Z,15.77
2022-12-20T19:19:13.208Z,14.40
2022-12-20T19:22:42.147Z,14.90
2022-12-20T19:26:11.707Z,14.38
2022-12-20T19:29:36.155Z,12.05
2022-12-20T19:33:06.110Z,17.30
2022-12-20T19:36:46.444Z,9.55
2022-12-20T19:40:08.990Z,11.65
2022-12-20T19:43:31.799Z,13.20
2022-12-20T19:46:55.805Z,11.65
2022-12-20T19:50:26.797Z,12.25
2022-12-20T19:53:51.526Z,17.10
2022-12-20T19:57:19.279Z,18.38
2022-12-20T20:00:41.287Z,11.57
2022-12-20T20:04:06.111Z,14.68
2022-12-20T20:07:28.003Z,19.92
2022-12-20T20:11:08.791Z,18.80
2022-12-20T20:14:31.480Z,12.60
2022-12-20T20:17:55.038Z,16.88
2022-12-20T20:21:21.821Z,13.95
2022-12-20T20:24:46.022Z,13.80
2022-12-20T20:28:07.916Z,15.05
2022-12-20T20:31:30.147Z,11.40
2022-12-20T20:34:51.983Z,14.45
2022-12-20T20:38:19.012Z,11.10
2022-12-20T20:41:42.853Z,14.80
2022-12-20T20:45:05.466Z,16.20
2022-12-20T20:48:27.298Z,11.55
2022-12-20T20:51:49.197Z,9.57
2022-12-20T20:55:12.282Z,11.48
2022-12-20T20:58:36.760Z,7.82
2022-12-20T21:01:59.719Z,9.68
2022-12-20T21:09:04.614Z,5.88
2022-12-20T21:12:28.573Z,5.07
2022-12-20T21:15:50.664Z,6.50
2022-12-20T21:19:12.613Z,6.93
2022-12-20T21:22:35.195Z,6.90
2022-12-20T21:25:58.625Z,14.77
2022-12-20T21:29:21.172Z,6.60
2022-12-20T21:32:43.116Z,5.07
2022-12-20T21:36:11.403Z,8.95
2022-12-20T21:39:34.216Z,5.10
2022-12-20T21:42:56.001Z,5.15
2022-12-20T21:46:17.973Z,6.65
2022-12-20T21:49:42.071Z,5.43
2022-12-20T21:53:06.006Z,5.50
2022-12-20T21:56:31.370Z,4.65
2022-12-20T21:59:53.187Z,3.33
2022-12-20T22:03:16.388Z,4.30
2022-12-20T22:06:41.109Z,6.00
2022-12-20T22:10:04.249Z,4.80
2022-12-20T22:13:27.662Z,6.65
2022-12-20T22:16:55.761Z,3.67
2022-12-20T22:20:17.850Z,6.22
2022-12-20T22:23:41.244Z,4.50
2022-12-20T22:27:11.650Z,5.97
2022-12-20T22:30:34.654Z,3.88
2022-12-20T22:33:59.246Z,3.47
2022-12-20T22:37:34.606Z,3.67
2022-12-20T22:41:10.803Z,5.05
2022-12-20T22:44:32.684Z,7.00
2022-12-20T22:48:06.953Z,3.72
2022-12-20T22:51:34.911Z,5.90
2022-12-20T22:55:05.504Z,4.10
2022-12-20T22:58:32.417Z,3.42
2022-12-20T23:01:54.711Z,6.10
2022-12-20T23:05:18.421Z,2.15
2022-12-20T23:08:43.132Z,2.20
2022-12-20T23:12:23.898Z,2.00
2022-12-20T23:15:48.359Z,2.10
2022-12-20T23:19:13.469Z,1.80
2022-12-20T23:22:40.408Z,2.30
2022-12-20T23:26:16.765Z,1.42
2022-12-20T23:29:49.293Z,3.90
2022-12-20T23:33:21.041Z,2.13
2022-12-20T23:37:09.763Z,3.33
2022-12-20T23:41:27.287Z,1.98
2022-12-20T23:44:29.487Z,2.05
2022-12-20T23:47:58.276Z,2.33
2022-12-20T23:51:25.481Z,1.25
2022-12-20T23:54:47.436Z,1.58
2022-12-20T23:58:09.287Z,1.60
